Time;durP1;ratioP1;P1;durP2;ratioP2;P2;SDS_P1;SDS_P2;PMS_P1;PMS_P2;Temp;Humidity;BMP_temperature;BMP_pressure;BME280_temperature;BME280_humidity;BME280_pressure;Samples;Min_cycle;Max_cycle;Signal;HPM_P1;HPM_P2
2021/01/12 00:03:59;;;;;;;22.70;14.95;;;4.10;99.90;;;;;;12357903;28;20051;-83
2021/01/12 00:10:01;;;;;;;20.25;16.17;;;4.10;99.90;;;;;;12336242;28;20104;-83
2021/01/12 00:16:02;;;;;;;26.25;17.55;;;4.10;99.90;;;;;;12347657;28;20046;-84
2021/01/12 00:22:13;;;;;;;25.45;18.50;;;4.10;99.90;;;;;;12322845;28;20054;-84
2021/01/12 00:28:16;;;;;;;26.65;19.67;;;4.20;99.90;;;;;;12352329;28;20062;-85
2021/01/12 00:34:17;;;;;;;26.40;17.83;;;4.10;99.90;;;;;;12329069;28;20066;-84
2021/01/12 00:40:18;;;;;;;24.35;18.80;;;4.20;99.90;;;;;;12351805;28;20050;-86
2021/01/12 00:46:20;;;;;;;23.92;17.55;;;4.20;99.90;;;;;;12388522;28;20054;-87
2021/01/12 00:52:21;;;;;;;24.58;17.33;;;4.20;99.90;;;;;;12349038;28;20132;-84
2021/01/12 00:58:22;;;;;;;26.98;18.23;;;4.30;99.90;;;;;;12312172;28;20046;-84
2021/01/12 01:04:25;;;;;;;21.30;14.30;;;4.30;99.90;;;;;;12340852;28;20534;-85
2021/01/12 01:10:26;;;;;;;22.70;15.57;;;4.30;99.90;;;;;;12339506;28;20051;-84
2021/01/12 01:16:31;;;;;;;22.42;14.80;;;4.30;99.90;;;;;;12315303;28;20055;-84
2021/01/12 01:22:33;;;;;;;22.38;16.13;;;4.30;99.90;;;;;;12315548;28;20185;-83
2021/01/12 01:28:34;;;;;;;18.83;14.18;;;4.30;99.90;;;;;;12333142;28;20117;-84
2021/01/12 01:34:36;;;;;;;17.77;13.10;;;4.20;99.90;;;;;;12320471;28;20073;-84
2021/01/12 01:40:37;;;;;;;19.52;12.25;;;4.20;99.90;;;;;;12296533;28;20109;-82
2021/01/12 01:46:42;;;;;;;17.88;12.88;;;4.20;99.90;;;;;;12302252;28;20066;-83
2021/01/12 01:52:51;;;;;;;17.33;12.98;;;4.20;99.90;;;;;;12301356;28;20039;-85
2021/01/12 01:58:53;;;;;;;17.15;12.48;;;4.20;99.90;;;;;;12272846;28;20114;-85
2021/01/12 02:04:59;;;;;;;16.92;12.50;;;4.20;99.90;;;;;;12261350;28;20059;-84
2021/01/12 02:11:01;;;;;;;16.45;12.02;;;4.20;99.90;;;;;;12283354;28;20082;-82
2021/01/12 02:17:04;;;;;;;14.32;11.75;;;4.20;99.90;;;;;;12268320;28;20051;-84
2021/01/12 02:23:31;;;;;;;16.63;12.38;;;4.20;99.90;;;;;;12272562;28;20051;-85
2021/01/12 02:29:32;;;;;;;16.27;12.57;;;4.20;99.90;;;;;;12295861;28;20087;-83
2021/01/12 02:35:39;;;;;;;16.98;12.52;;;4.20;99.90;;;;;;12273818;28;20047;-83
2021/01/12 02:41:41;;;;;;;14.88;11.02;;;4.20;99.90;;;;;;12264689;28;20043;-84
2021/01/12 02:47:42;;;;;;;15.50;12.07;;;4.20;99.90;;;;;;12278749;28;20503;-84
2021/01/12 02:53:43;;;;;;;15.02;11.70;;;4.20;99.90;;;;;;12286010;28;20040;-84
2021/01/12 02:59:45;;;;;;;15.95;12.57;;;4.20;99.90;;;;;;12287029;28;20047;-83
2021/01/12 03:05:46;;;;;;;17.45;13.13;;;4.30;99.90;;;;;;12292146;28;20126;-84
2021/01/12 03:11:52;;;;;;;16.63;12.32;;;4.30;99.90;;;;;;12291217;28;20042;-83
2021/01/12 03:17:54;;;;;;;17.77;12.60;;;4.30;99.90;;;;;;12294963;28;20059;-84
2021/01/12 03:23:56;;;;;;;17.73;13.70;;;4.30;99.90;;;;;;12291127;28;20063;-85
2021/01/12 03:29:57;;;;;;;18.17;14.13;;;4.40;99.90;;;;;;12298012;28;20657;-84
2021/01/12 03:35:58;;;;;;;21.02;13.73;;;4.40;99.90;;;;;;12308521;28;20073;-83
2021/01/12 03:42:00;;;;;;;16.02;12.80;;;4.40;99.90;;;;;;12284299;28;20105;-84
2021/01/12 03:48:01;;;;;;;15.82;12.35;;;4.40;99.90;;;;;;12278745;28;20054;-84
2021/01/12 03:54:02;;;;;;;15.32;11.90;;;4.40;99.90;;;;;;12276837;28;20573;-85
2021/01/12 04:00:05;;;;;;;14.50;11.35;;;4.40;99.90;;;;;;12281244;28;20050;-85
2021/01/12 04:06:13;;;;;;;17.27;12.50;;;4.30;99.90;;;;;;12288913;28;20058;-87
2021/01/12 04:12:14;;;;;;;18.27;12.15;;;4.30;99.90;;;;;;12283288;28;20051;-86
2021/01/12 04:18:15;;;;;;;16.35;12.23;;;4.30;99.90;;;;;;12309251;28;20108;-87
2021/01/12 04:24:17;;;;;;;16.23;12.00;;;4.30;99.90;;;;;;12292624;28;20081;-87
2021/01/12 04:30:18;;;;;;;17.73;12.45;;;4.30;99.90;;;;;;12280428;28;20082;-85
2021/01/12 04:36:19;;;;;;;17.02;11.70;;;4.30;99.90;;;;;;12287341;28;20488;-85
2021/01/12 04:42:21;;;;;;;14.48;11.18;;;4.40;99.90;;;;;;12283789;28;20452;-85
2021/01/12 04:48:22;;;;;;;13.43;10.15;;;4.40;99.90;;;;;;12280640;28;20145;-86
2021/01/12 04:54:34;;;;;;;12.77;9.63;;;4.40;99.90;;;;;;12305132;28;20038;-85
2021/01/12 05:00:37;;;;;;;13.32;9.60;;;4.40;99.90;;;;;;12288810;28;20720;-85
2021/01/12 05:06:39;;;;;;;11.80;8.85;;;4.40;99.90;;;;;;12308587;28;20485;-86
2021/01/12 05:12:41;;;;;;;10.35;8.35;;;4.40;99.90;;;;;;12279523;28;20458;-85
2021/01/12 05:18:42;;;;;;;11.38;8.65;;;4.40;99.90;;;;;;12303509;28;20038;-84
2021/01/12 05:24:45;;;;;;;11.88;9.40;;;4.30;99.90;;;;;;12278870;28;20043;-85
2021/01/12 05:30:47;;;;;;;11.48;9.32;;;4.30;99.90;;;;;;12287649;28;20081;-83
2021/01/12 05:36:52;;;;;;;11.93;8.90;;;4.40;99.90;;;;;;12282173;28;20054;-85
2021/01/12 05:43:07;;;;;;;14.27;10.32;;;4.30;99.90;;;;;;12309181;28;20454;-86
2021/01/12 05:49:09;;;;;;;14.18;10.48;;;4.40;99.90;;;;;;12291108;28;20097;-83
2021/01/12 05:55:14;;;;;;;12.48;10.50;;;4.40;99.90;;;;;;12278017;28;20097;-86
2021/01/12 06:01:27;;;;;;;12.88;10.52;;;4.50;99.90;;;;;;12304655;28;20046;-85
2021/01/12 06:07:29;;;;;;;14.55;11.25;;;4.60;99.90;;;;;;12302911;28;20050;-83
2021/01/12 06:13:34;;;;;;;14.25;11.23;;;4.60;99.90;;;;;;12287789;28;20451;-82
2021/01/12 06:19:43;;;;;;;15.55;11.98;;;4.70;99.90;;;;;;12288046;28;20147;-84
2021/01/12 06:25:45;;;;;;;17.20;13.23;;;4.70;99.90;;;;;;12289383;28;20181;-84
2021/01/12 06:31:48;;;;;;;17.63;13.02;;;4.70;99.90;;;;;;12293640;28;20137;-83
2021/01/12 06:37:50;;;;;;;17.38;13.10;;;4.80;99.90;;;;;;12300570;28;20047;-84
2021/01/12 06:43:53;;;;;;;16.90;12.57;;;4.90;99.90;;;;;;12306153;28;20130;-85
2021/01/12 06:50:06;;;;;;;16.58;12.95;;;5.00;99.90;;;;;;12293787;28;20144;-84
2021/01/12 06:56:07;;;;;;;15.52;12.68;;;5.10;99.90;;;;;;12309348;28;21311;-86
2021/01/12 07:02:18;;;;;;;14.57;12.02;;;5.10;99.90;;;;;;12294777;28;20077;-83
2021/01/12 07:08:25;;;;;;;17.15;12.45;;;5.30;99.90;;;;;;12290442;28;20050;-82
2021/01/12 07:14:31;;;;;;;14.93;11.35;;;5.30;99.90;;;;;;12298108;28;20045;-84
2021/01/12 07:20:38;;;;;;;13.60;9.02;;;5.40;99.90;;;;;;12291795;28;20202;-84
2021/01/12 07:26:41;;;;;;;8.02;6.07;;;5.50;99.90;;;;;;12279838;28;20117;-83
2021/01/12 07:32:53;;;;;;;7.95;5.45;;;5.90;99.90;;;;;;12282348;28;21222;-84
2021/01/12 07:38:54;;;;;;;5.50;4.72;;;5.90;99.90;;;;;;12311911;28;20064;-84
2021/01/12 07:44:55;;;;;;;4.88;3.78;;;6.00;99.90;;;;;;12305345;28;20086;-84
2021/01/12 07:51:01;;;;;;;4.20;3.45;;;6.10;99.90;;;;;;12296470;28;20097;-83
2021/01/12 07:57:04;;;;;;;4.10;3.08;;;6.10;99.90;;;;;;12299952;28;20382;-84
2021/01/12 08:03:06;;;;;;;3.42;2.83;;;6.20;99.90;;;;;;12299681;28;20089;-83
2021/01/12 08:09:08;;;;;;;3.63;2.33;;;6.10;99.90;;;;;;12292332;28;20059;-85
2021/01/12 08:15:14;;;;;;;2.92;2.08;;;6.10;99.90;;;;;;12281294;28;20134;-84
2021/01/12 08:21:15;;;;;;;3.03;2.05;;;6.20;99.90;;;;;;12279632;28;20043;-83
2021/01/12 08:27:21;;;;;;;2.88;2.20;;;6.30;99.90;;;;;;12283398;28;20475;-84
2021/01/12 08:33:29;;;;;;;3.83;2.30;;;6.10;99.90;;;;;;12299089;28;20462;-85
2021/01/12 08:39:32;;;;;;;3.47;2.35;;;5.90;99.90;;;;;;12294013;28;20055;-84
2021/01/12 08:45:33;;;;;;;3.88;2.30;;;6.00;99.90;;;;;;12291695;28;20085;-85
2021/01/12 08:51:36;;;;;;;5.50;2.10;;;6.20;99.90;;;;;;12299960;28;20546;-85
2021/01/12 08:57:37;;;;;;;3.20;2.30;;;6.30;99.90;;;;;;12305064;28;20130;-86
2021/01/12 09:03:42;;;;;;;3.28;2.13;;;6.40;99.90;;;;;;12302021;28;20483;-85
2021/01/12 09:09:51;;;;;;;2.70;1.88;;;6.30;99.90;;;;;;12293129;28;20491;-85
2021/01/12 09:15:53;;;;;;;3.40;2.00;;;6.40;99.90;;;;;;12294977;28;20046;-84
2021/01/12 09:21:54;;;;;;;2.92;1.90;;;6.30;99.90;;;;;;12301562;28;20153;-84
2021/01/12 09:28:09;;;;;;;3.40;2.03;;;6.40;99.90;;;;;;12306073;28;20105;-85
2021/01/12 09:34:10;;;;;;;3.10;2.15;;;6.40;99.90;;;;;;12306261;28;20709;-85
2021/01/12 09:40:12;;;;;;;4.00;2.25;;;6.40;99.90;;;;;;12278915;28;21310;-85
2021/01/12 09:46:15;;;;;;;4.20;2.20;;;6.50;99.90;;;;;;12302994;28;20094;-84
2021/01/12 09:52:16;;;;;;;5.63;2.95;;;6.50;99.90;;;;;;12291146;28;20422;-85
2021/01/12 09:58:18;;;;;;;3.60;1.63;;;6.50;99.90;;;;;;12297043;28;20537;-83
2021/01/12 10:04:19;;;;;;;3.58;1.80;;;6.20;99.90;;;;;;12284839;28;20077;-84
2021/01/12 10:10:21;;;;;;;4.97;2.53;;;6.10;99.90;;;;;;12279260;28;20073;-84
2021/01/12 10:16:24;;;;;;;3.58;2.42;;;5.90;99.90;;;;;;12303951;28;20070;-84
2021/01/12 10:22:26;;;;;;;2.92;2.10;;;5.90;99.90;;;;;;12280791;28;20047;-84
2021/01/12 10:28:27;;;;;;;4.15;1.60;;;5.40;99.90;;;;;;12300239;28;20073;-83
2021/01/12 10:34:41;;;;;;;6.88;1.48;;;5.00;99.90;;;;;;12306118;28;20511;-82
2021/01/12 10:40:43;;;;;;;6.10;1.88;;;4.80;99.90;;;;;;12288708;28;20097;-84
2021/01/12 10:46:44;;;;;;;6.70;2.67;;;4.80;99.90;;;;;;12308453;28;20138;-82
2021/01/12 10:52:47;;;;;;;3.60;2.28;;;4.80;99.90;;;;;;12288489;28;20057;-84
2021/01/12 10:58:48;;;;;;;6.20;2.30;;;4.80;99.90;;;;;;12291295;28;20516;-84
2021/01/12 11:04:49;;;;;;;6.82;2.67;;;4.70;99.90;;;;;;12310301;28;20074;-83
2021/01/12 11:10:51;;;;;;;9.70;2.72;;;4.80;99.90;;;;;;12290842;28;20043;-83
2021/01/12 11:16:52;;;;;;;10.10;2.70;;;4.90;99.90;;;;;;12302581;28;20106;-83
2021/01/12 11:22:54;;;;;;;5.32;2.15;;;5.00;99.90;;;;;;12285853;28;20093;-82
2021/01/12 11:28:55;;;;;;;6.38;1.50;;;5.10;99.90;;;;;;12313304;28;20059;-85
2021/01/12 11:34:56;;;;;;;9.73;1.75;;;5.10;99.90;;;;;;12299644;28;20066;-84
2021/01/12 11:40:58;;;;;;;11.75;3.13;;;5.20;99.90;;;;;;12287174;28;20046;-82
2021/01/12 11:46:59;;;;;;;10.07;1.75;;;5.10;99.90;;;;;;12278920;28;20069;-83
2021/01/12 11:53:01;;;;;;;9.57;1.52;;;5.30;99.90;;;;;;12289257;28;20443;-82
2021/01/12 11:59:03;;;;;;;8.73;1.85;;;5.30;99.90;;;;;;12285018;28;20059;-83
2021/01/12 12:05:05;;;;;;;6.90;1.50;;;5.30;99.90;;;;;;12291591;28;20047;-84
2021/01/12 12:11:06;;;;;;;10.90;1.95;;;5.40;99.90;;;;;;12302837;28;20078;-85
2021/01/12 12:17:08;;;;;;;6.72;1.20;;;5.40;99.90;;;;;;12295196;28;20074;-84
2021/01/12 12:23:09;;;;;;;7.22;1.33;;;5.30;99.90;;;;;;12301287;28;20487;-84
2021/01/12 12:29:11;;;;;;;8.48;1.85;;;5.30;99.90;;;;;;12293441;28;20077;-84
2021/01/12 12:35:12;;;;;;;8.35;1.40;;;5.30;99.90;;;;;;12299389;28;20047;-85
2021/01/12 12:41:17;;;;;;;10.55;1.75;;;5.20;99.90;;;;;;12290169;28;20050;-84
2021/01/12 12:47:22;;;;;;;7.97;1.67;;;5.50;99.90;;;;;;12309722;28;20495;-85
2021/01/12 12:53:24;;;;;;;5.37;1.90;;;5.40;99.90;;;;;;12282540;28;20515;-85
2021/01/12 12:59:26;;;;;;;5.53;1.60;;;5.40;99.90;;;;;;12289800;28;20043;-84
2021/01/12 13:05:28;;;;;;;14.82;2.10;;;5.40;99.90;;;;;;12293313;28;20376;-84
2021/01/12 13:11:29;;;;;;;7.93;1.63;;;5.40;99.90;;;;;;12295384;28;20613;-83
2021/01/12 13:17:42;;;;;;;8.98;1.88;;;5.30;99.90;;;;;;12335066;28;20046;-84
2021/01/12 13:23:44;;;;;;;7.03;1.42;;;5.20;99.90;;;;;;12340092;28;20501;-84
2021/01/12 13:29:46;;;;;;;7.63;1.67;;;5.20;99.90;;;;;;12324249;28;20571;-84
2021/01/12 13:35:48;;;;;;;15.00;1.48;;;5.20;99.90;;;;;;12336659;28;20058;-84
2021/01/12 13:41:50;;;;;;;11.85;1.70;;;5.20;99.90;;;;;;12340861;28;20047;-84
2021/01/12 13:47:53;;;;;;;7.32;1.25;;;5.10;99.90;;;;;;12320626;28;20054;-83
2021/01/12 13:53:55;;;;;;;6.45;0.82;;;5.00;99.90;;;;;;12373464;28;20050;-83
2021/01/12 14:07:22;;;;;;;5.38;0.88;;;5.00;99.90;;;;;;12401621;28;20069;-83
2021/01/12 14:13:24;;;;;;;6.13;0.95;;;5.00;99.90;;;;;;12375835;28;20073;-83
2021/01/12 14:19:27;;;;;;;5.80;1.10;;;4.90;99.90;;;;;;12386058;28;20046;-83
2021/01/12 14:25:30;;;;;;;3.22;0.85;;;4.90;99.90;;;;;;12377689;28;20136;-84
2021/01/12 14:31:31;;;;;;;8.35;1.13;;;4.80;99.90;;;;;;12361410;28;20056;-84
2021/01/12 14:37:38;;;;;;;6.82;1.02;;;4.80;99.90;;;;;;12379252;28;20050;-83
2021/01/12 14:43:40;;;;;;;7.45;1.08;;;4.70;99.90;;;;;;12379267;28;20054;-85
2021/01/12 14:49:42;;;;;;;6.63;0.82;;;4.60;99.90;;;;;;12366445;28;20514;-83
2021/01/12 14:55:43;;;;;;;6.80;1.00;;;4.60;99.90;;;;;;12364623;28;20560;-84
2021/01/12 15:01:44;;;;;;;6.32;1.10;;;4.60;99.90;;;;;;12375092;28;20137;-84
2021/01/12 15:07:46;;;;;;;7.85;1.70;;;4.70;99.90;;;;;;12373582;28;20046;-84
2021/01/12 15:13:47;;;;;;;4.70;0.80;;;4.80;99.90;;;;;;12386373;28;20053;-84
2021/01/12 15:19:49;;;;;;;4.65;1.30;;;4.70;99.90;;;;;;12376075;28;20082;-84
2021/01/12 15:25:50;;;;;;;4.00;0.77;;;4.70;99.90;;;;;;12370100;28;20572;-85
2021/01/12 15:32:00;;;;;;;5.47;1.70;;;4.20;99.90;;;;;;12369504;28;20057;-84
2021/01/12 15:38:02;;;;;;;7.30;1.10;;;3.60;99.90;;;;;;12384321;28;20046;-84
2021/01/12 15:44:03;;;;;;;5.07;1.33;;;3.60;99.90;;;;;;12357888;28;20046;-84
2021/01/12 15:50:05;;;;;;;9.25;0.98;;;3.50;99.90;;;;;;12403062;28;20058;-83
2021/01/12 15:56:08;;;;;;;9.18;1.55;;;3.50;99.90;;;;;;12372994;28;20395;-83
2021/01/12 16:02:12;;;;;;;5.53;1.35;;;3.60;99.90;;;;;;12333041;28;20050;-82
2021/01/12 16:08:17;;;;;;;6.40;1.20;;;3.60;99.90;;;;;;12294535;28;20496;-83
2021/01/12 16:14:19;;;;;;;3.65;0.82;;;3.60;99.90;;;;;;12289623;28;20162;-82
2021/01/12 16:20:22;;;;;;;5.07;1.00;;;3.60;99.90;;;;;;12286963;28;20051;-83
2021/01/12 16:26:28;;;;;;;4.90;0.85;;;3.60;99.90;;;;;;12300990;28;20410;-81
2021/01/12 16:32:30;;;;;;;5.20;0.93;;;3.50;99.90;;;;;;12284949;28;20054;-84
2021/01/12 16:38:32;;;;;;;6.10;1.67;;;3.50;99.90;;;;;;12294013;28;20057;-82
2021/01/12 16:44:40;;;;;;;7.50;1.23;;;3.50;99.90;;;;;;12290730;28;20094;-83
2021/01/12 16:50:42;;;;;;;11.00;1.77;;;3.50;99.90;;;;;;12194424;29;20470;-84
2021/01/12 16:57:12;;;;;;;8.05;1.75;;;3.40;99.90;;;;;;12200779;29;20408;-82
2021/01/12 17:03:14;;;;;;;8.10;2.15;;;3.30;99.90;;;;;;12209679;29;20044;-82
2021/01/12 17:09:18;;;;;;;7.60;1.58;;;3.10;99.90;;;;;;12210511;29;20047;-83
2021/01/12 17:15:20;;;;;;;9.50;1.48;;;3.10;99.90;;;;;;12206544;29;20047;-83
2021/01/12 17:21:43;;;;;;;12.50;2.10;;;3.00;99.90;;;;;;12206327;29;20535;-83
2021/01/12 17:27:47;;;;;;;8.85;1.90;;;2.90;99.90;;;;;;12215297;29;20055;-82
2021/01/12 17:33:49;;;;;;;11.70;1.90;;;2.80;99.90;;;;;;12201426;29;20047;-84
2021/01/12 17:39:56;;;;;;;12.07;2.03;;;2.80;99.90;;;;;;12224851;29;20052;-84
2021/01/12 17:45:58;;;;;;;9.32;2.10;;;2.80;99.90;;;;;;12252319;28;20109;-83
2021/01/12 17:52:02;;;;;;;10.43;1.90;;;2.70;99.90;;;;;;12281696;28;20086;-83
2021/01/12 17:58:04;;;;;;;7.37;1.67;;;2.70;99.90;;;;;;12293701;28;20051;-83
2021/01/12 18:04:05;;;;;;;9.10;1.98;;;2.60;99.90;;;;;;12291367;28;20050;-83
2021/01/12 18:10:17;;;;;;;7.25;1.63;;;2.60;99.90;;;;;;12310545;28;20566;-83
2021/01/12 18:16:18;;;;;;;8.18;1.85;;;2.60;99.90;;;;;;12310167;28;20051;-82
2021/01/12 18:22:21;;;;;;;14.82;2.03;;;2.60;99.90;;;;;;12283801;28;20039;-82
2021/01/12 18:28:28;;;;;;;9.98;1.70;;;2.60;99.90;;;;;;12248415;28;20989;-83
2021/01/12 18:34:30;;;;;;;7.80;2.03;;;2.60;99.90;;;;;;12298343;28;20057;-83
2021/01/12 18:40:32;;;;;;;7.47;1.52;;;2.60;99.90;;;;;;12334418;28;20073;-83
2021/01/12 18:46:35;;;;;;;10.75;1.80;;;2.50;99.90;;;;;;12320937;28;20058;-84
2021/01/12 18:52:37;;;;;;;6.20;1.70;;;2.50;99.90;;;;;;12336336;28;20070;-85
2021/01/12 18:58:38;;;;;;;8.75;2.10;;;2.50;99.90;;;;;;12335655;28;20463;-83
2021/01/12 19:04:40;;;;;;;10.35;1.95;;;2.50;99.90;;;;;;12355345;28;20070;-85
2021/01/12 19:10:44;;;;;;;7.53;1.50;;;2.40;99.90;;;;;;12341779;28;20535;-85
2021/01/12 19:16:48;;;;;;;9.30;1.63;;;2.40;99.90;;;;;;12347233;28;20162;-84
2021/01/12 19:22:49;;;;;;;13.25;2.03;;;2.40;99.90;;;;;;12353147;28;20121;-83
2021/01/12 19:28:51;;;;;;;9.55;1.60;;;2.40;99.90;;;;;;12326570;28;20550;-84
2021/01/12 19:34:55;;;;;;;10.70;2.30;;;2.40;99.90;;;;;;12354045;28;20038;-84
2021/01/12 19:40:59;;;;;;;12.17;2.43;;;2.40;99.90;;;;;;12321954;28;20179;-83
2021/01/12 19:47:08;;;;;;;10.47;2.03;;;2.40;99.90;;;;;;12311631;28;20062;-83
2021/01/12 19:53:12;;;;;;;13.10;2.38;;;2.40;99.90;;;;;;12354257;28;20042;-84
2021/01/12 19:59:14;;;;;;;10.77;2.60;;;2.50;99.90;;;;;;12373816;28;20052;-82
2021/01/12 20:05:16;;;;;;;9.07;1.88;;;2.40;99.90;;;;;;12368761;28;20084;-83
2021/01/12 20:11:18;;;;;;;12.30;2.53;;;2.40;99.90;;;;;;12366942;28;20133;-84
2021/01/12 20:17:22;;;;;;;12.38;2.08;;;2.40;99.90;;;;;;12360148;28;20050;-83
2021/01/12 20:23:26;;;;;;;16.10;3.42;;;2.30;99.90;;;;;;12379498;28;20061;-84
2021/01/12 20:29:28;;;;;;;9.25;1.90;;;2.30;99.90;;;;;;12367449;28;20107;-84
2021/01/12 20:35:30;;;;;;;11.07;1.90;;;2.30;99.90;;;;;;12362314;28;20855;-83
2021/01/12 20:41:39;;;;;;;14.23;2.35;;;2.30;99.90;;;;;;12364158;28;20125;-82
2021/01/12 20:47:41;;;;;;;17.83;3.92;;;2.30;99.90;;;;;;12388469;28;20081;-83
2021/01/12 20:53:48;;;;;;;11.73;2.22;;;2.20;99.90;;;;;;12373008;28;20078;-84
2021/01/12 20:59:49;;;;;;;17.02;2.17;;;2.30;99.90;;;;;;12373302;28;20138;-83
2021/01/12 21:05:51;;;;;;;10.63;1.70;;;2.20;99.90;;;;;;12370632;28;20096;-83
2021/01/12 21:11:55;;;;;;;10.38;1.90;;;2.20;99.90;;;;;;12387164;28;20077;-83
2021/01/12 21:18:00;;;;;;;12.00;2.00;;;2.20;99.90;;;;;;12387081;28;20506;-84
2021/01/12 21:24:04;;;;;;;9.95;2.13;;;2.10;99.90;;;;;;12373494;28;20097;-83
2021/01/12 21:30:07;;;;;;;9.53;2.23;;;2.10;99.90;;;;;;12364699;28;20050;-83
2021/01/12 21:36:14;;;;;;;8.30;1.73;;;2.10;99.90;;;;;;12375063;28;20092;-84
2021/01/12 21:42:17;;;;;;;9.50;2.10;;;2.10;99.90;;;;;;12369662;28;20070;-82
2021/01/12 21:48:18;;;;;;;10.95;2.05;;;2.00;99.90;;;;;;12332964;28;20170;-82
2021/01/12 21:54:19;;;;;;;11.23;1.70;;;2.00;99.90;;;;;;12320745;28;20471;-84
2021/01/12 22:00:21;;;;;;;18.75;2.92;;;2.00;99.90;;;;;;12316598;28;20261;-83
2021/01/12 22:06:27;;;;;;;13.88;2.03;;;2.10;99.90;;;;;;12368476;28;20054;-84
2021/01/12 22:12:28;;;;;;;9.32;2.10;;;2.10;99.90;;;;;;12383326;28;20149;-82
2021/01/12 22:18:30;;;;;;;14.38;1.80;;;2.10;99.90;;;;;;12386238;28;20528;-83
2021/01/12 22:24:31;;;;;;;17.20;2.13;;;2.20;99.90;;;;;;12375816;28;20128;-83
2021/01/12 22:30:32;;;;;;;12.43;2.20;;;2.20;99.90;;;;;;12387787;28;20077;-82
2021/01/12 22:36:35;;;;;;;15.80;2.83;;;2.20;99.90;;;;;;12375680;28;20070;-83
2021/01/12 22:42:36;;;;;;;8.60;1.75;;;2.30;99.90;;;;;;12389542;28;20042;-83
2021/01/12 22:48:37;;;;;;;10.85;1.67;;;2.30;99.90;;;;;;12393165;28;20062;-83
2021/01/12 22:54:39;;;;;;;13.95;2.08;;;2.30;99.90;;;;;;12399567;28;20461;-82
2021/01/12 23:00:40;;;;;;;7.28;1.83;;;2.30;99.90;;;;;;12374709;28;20062;-83
2021/01/12 23:06:51;;;;;;;10.65;2.03;;;2.30;99.90;;;;;;12401891;28;20507;-82
2021/01/12 23:12:53;;;;;;;20.48;2.55;;;2.30;99.90;;;;;;12367052;28;20046;-83
2021/01/12 23:18:56;;;;;;;8.73;1.50;;;2.20;99.90;;;;;;12396410;28;20054;-84
2021/01/12 23:24:58;;;;;;;11.68;2.15;;;2.20;99.90;;;;;;12368448;28;20548;-83
2021/01/12 23:30:59;;;;;;;11.55;1.55;;;2.10;99.90;;;;;;12378092;28;20137;-81
2021/01/12 23:37:00;;;;;;;11.18;2.03;;;2.00;99.90;;;;;;12379338;28;20478;-83
2021/01/12 23:43:04;;;;;;;8.20;1.77;;;2.00;99.90;;;;;;12376489;28;20058;-83
2021/01/12 23:49:05;;;;;;;7.70;1.40;;;2.00;99.90;;;;;;12360677;28;20971;-82
2021/01/12 23:55:07;;;;;;;9.07;1.45;;;2.00;99.90;;;;;;12376835;28;20068;-82
